Time;durP1;ratioP1;P1;durP2;ratioP2;P2;SDS_P1;SDS_P2;PMS_P1;PMS_P2;Temp;Humidity;BMP_temperature;BMP_pressure;BME280_temperature;BME280_humidity;BME280_pressure;Samples;Min_cycle;Max_cycle;Signal;HPM_P1;HPM_P2
2024/04/05 00:00:45;;;;;;;24.10;2.83;;;12.60;99.90;;;;;;5054090;28;20035;-37
2024/04/05 00:03:10;;;;;;;24.90;4.10;;;12.70;99.90;;;;;;5053914;28;20017;-54
2024/04/05 00:05:36;;;;;;;28.67;3.38;;;12.60;99.90;;;;;;5053733;28;20078;-41
2024/04/05 00:08:01;;;;;;;23.17;3.35;;;12.70;99.90;;;;;;5053839;28;20098;-38
2024/04/05 00:10:27;;;;;;;16.13;2.88;;;12.60;99.90;;;;;;5053492;28;20039;-39
2024/04/05 00:12:53;;;;;;;22.35;3.33;;;12.60;99.90;;;;;;5053610;28;20029;-41
2024/04/05 00:15:19;;;;;;;26.40;3.65;;;12.50;99.90;;;;;;5053482;28;20401;-39
2024/04/05 00:17:45;;;;;;;16.92;4.05;;;12.50;99.90;;;;;;5053412;28;20086;-38
2024/04/05 00:20:11;;;;;;;27.58;2.78;;;12.60;99.90;;;;;;5053510;28;20031;-43
2024/04/05 00:22:37;;;;;;;27.83;3.17;;;12.60;99.90;;;;;;5053366;28;20489;-38
2024/04/05 00:25:03;;;;;;;22.27;3.35;;;12.60;99.90;;;;;;5053816;28;20032;-40
2024/04/05 00:27:28;;;;;;;22.83;2.55;;;12.60;99.90;;;;;;5053372;28;20404;-37
2024/04/05 00:29:54;;;;;;;17.65;3.28;;;12.60;99.90;;;;;;5053489;28;20025;-40
2024/04/05 00:32:20;;;;;;;20.40;4.32;;;12.60;99.90;;;;;;5052890;28;20013;-39
2024/04/05 00:34:46;;;;;;;23.73;2.63;;;12.60;99.90;;;;;;5053093;28;20112;-37
2024/04/05 00:37:13;;;;;;;15.45;3.13;;;12.60;99.90;;;;;;5053229;28;20053;-46
2024/04/05 00:39:39;;;;;;;22.08;3.30;;;12.60;99.90;;;;;;5053056;28;20124;-38
2024/04/05 00:42:05;;;;;;;22.48;2.75;;;12.70;99.90;;;;;;5052984;28;20101;-38
2024/04/05 00:44:30;;;;;;;20.38;2.47;;;12.60;99.90;;;;;;5052944;28;20032;-39
2024/04/05 00:46:56;;;;;;;17.23;3.22;;;12.50;99.90;;;;;;5052893;28;20017;-37
2024/04/05 00:49:23;;;;;;;15.88;2.28;;;12.50;99.90;;;;;;5052658;28;20027;-37
2024/04/05 00:51:49;;;;;;;13.77;3.63;;;12.50;99.90;;;;;;5051617;28;20358;-39
2024/04/05 00:54:14;;;;;;;17.45;2.17;;;12.60;99.90;;;;;;5052690;28;20040;-38
2024/04/05 00:56:40;;;;;;;10.52;2.50;;;12.50;99.90;;;;;;5052763;28;20518;-37
2024/04/05 00:59:07;;;;;;;14.18;2.28;;;12.60;99.90;;;;;;5052970;28;20028;-37
2024/04/05 01:01:33;;;;;;;15.30;2.77;;;12.60;99.90;;;;;;5052591;28;20088;-38
2024/04/05 01:03:59;;;;;;;11.55;2.40;;;12.60;99.90;;;;;;5051813;28;20529;-38
2024/04/05 01:06:24;;;;;;;10.35;2.38;;;12.60;99.90;;;;;;5052142;28;20100;-38
2024/04/05 01:08:50;;;;;;;22.88;2.97;;;12.60;99.90;;;;;;5052265;28;20024;-37
2024/04/05 01:11:16;;;;;;;10.75;2.15;;;12.60;99.90;;;;;;5052420;28;20025;-37
2024/04/05 01:13:42;;;;;;;14.93;3.17;;;12.70;99.90;;;;;;5052466;28;20029;-37
2024/04/05 01:16:07;;;;;;;29.38;3.92;;;12.70;99.90;;;;;;5052398;28;20104;-37
2024/04/05 01:18:33;;;;;;;14.65;2.60;;;12.80;99.90;;;;;;5052381;28;20091;-39
2024/04/05 01:21:01;;;;;;;19.38;2.72;;;12.80;99.90;;;;;;5052340;28;20021;-38
2024/04/05 01:23:27;;;;;;;;;;;12.70;99.90;;;;;;5052805;28;20033;-37
2024/04/05 01:25:53;;;;;;;15.13;2.05;;;12.70;99.90;;;;;;5052352;28;19952;-36
2024/04/05 01:28:19;;;;;;;17.52;2.50;;;12.80;99.90;;;;;;5052260;28;20075;-36
2024/04/05 01:30:45;;;;;;;27.92;4.35;;;12.80;99.90;;;;;;5052464;28;20067;-38
2024/04/05 01:33:10;;;;;;;19.98;2.47;;;12.80;99.90;;;;;;5052183;28;20052;-39
2024/04/05 01:35:38;;;;;;;21.25;3.40;;;12.80;99.90;;;;;;5052136;28;20470;-38
2024/04/05 01:38:04;;;;;;;15.98;2.88;;;12.80;99.90;;;;;;5052458;28;20462;-38
2024/04/05 01:40:30;;;;;;;14.85;3.42;;;12.80;99.90;;;;;;5052386;28;20074;-41
2024/04/05 01:42:55;;;;;;;18.00;2.42;;;12.80;99.90;;;;;;5052043;28;20075;-39
2024/04/05 01:45:22;;;;;;;21.00;2.25;;;12.80;99.90;;;;;;5046880;28;20071;-36
2024/04/05 01:47:47;;;;;;;17.60;2.95;;;12.80;99.90;;;;;;5032474;28;20494;-37
2024/04/05 01:50:14;;;;;;;21.13;2.83;;;12.80;99.90;;;;;;5032207;28;20076;-38
2024/04/05 01:52:40;;;;;;;22.98;2.80;;;12.80;99.90;;;;;;5032228;28;20567;-37
2024/04/05 01:55:06;;;;;;;18.10;3.38;;;12.80;99.90;;;;;;5048883;28;20025;-38
2024/04/05 01:57:36;;;;;;;9.13;3.25;;;12.80;99.90;;;;;;5051866;28;20087;-37
2024/04/05 02:00:03;;;;;;;18.08;3.63;;;12.80;99.90;;;;;;5051861;28;20567;-36
2024/04/05 02:02:28;;;;;;;19.90;3.45;;;12.90;99.90;;;;;;5050394;28;20377;-36
2024/04/05 02:04:54;;;;;;;18.27;2.05;;;12.90;99.90;;;;;;5050458;28;20025;-36
2024/04/05 02:07:23;;;;;;;13.13;3.00;;;12.80;99.90;;;;;;5051832;28;20033;-37
2024/04/05 02:09:50;;;;;;;24.10;2.13;;;12.80;99.90;;;;;;5051825;28;20036;-37
2024/04/05 02:12:16;;;;;;;18.05;3.45;;;12.80;99.90;;;;;;5052027;28;20035;-36
2024/04/05 02:14:42;;;;;;;15.77;3.35;;;12.80;99.90;;;;;;5051907;28;20432;-38
2024/04/05 02:17:08;;;;;;;19.10;3.38;;;12.80;99.90;;;;;;5051967;28;20080;-37
2024/04/05 02:19:34;;;;;;;26.08;3.33;;;12.80;99.90;;;;;;5051815;28;20032;-39
2024/04/05 02:21:59;;;;;;;17.80;2.85;;;12.70;99.90;;;;;;5054228;28;20025;-41
2024/04/05 02:24:25;;;;;;;15.98;2.80;;;12.70;99.90;;;;;;5054688;28;20399;-38
2024/04/05 02:26:50;;;;;;;11.85;2.40;;;12.70;99.90;;;;;;5054448;28;20397;-41
2024/04/05 02:29:17;;;;;;;25.05;4.38;;;12.80;99.90;;;;;;5055856;28;20044;-37
2024/04/05 02:31:42;;;;;;;15.52;3.83;;;12.80;99.90;;;;;;5055569;28;20044;-52
2024/04/05 02:34:08;;;;;;;11.57;2.05;;;12.80;99.90;;;;;;5055654;28;20033;-52
2024/04/05 02:36:34;;;;;;;22.50;3.13;;;12.80;99.90;;;;;;5055513;28;20027;-53
2024/04/05 02:39:00;;;;;;;29.25;3.55;;;12.80;99.90;;;;;;5055401;28;20503;-50
2024/04/05 02:41:25;;;;;;;14.90;3.80;;;12.80;99.90;;;;;;5055420;28;20023;-53
2024/04/05 02:43:51;;;;;;;16.55;2.70;;;12.80;99.90;;;;;;5055777;28;20502;-53
2024/04/05 02:46:17;;;;;;;20.75;3.95;;;12.80;99.90;;;;;;5055498;28;20031;-52
2024/04/05 02:48:42;;;;;;;25.67;3.40;;;12.80;99.90;;;;;;5055193;28;20079;-56
2024/04/05 02:51:08;;;;;;;19.92;3.38;;;12.80;99.90;;;;;;5055622;28;20452;-54
2024/04/05 02:53:33;;;;;;;11.10;2.42;;;12.80;99.90;;;;;;5055248;28;20095;-53
2024/04/05 02:55:59;;;;;;;14.75;3.03;;;12.70;99.90;;;;;;5055192;28;20021;-51
2024/04/05 02:58:25;;;;;;;14.15;2.75;;;12.70;99.90;;;;;;5035258;28;20123;-36
2024/04/05 03:00:55;;;;;;;9.18;1.80;;;12.70;99.90;;;;;;5035262;28;20363;-36
2024/04/05 03:03:21;;;;;;;22.33;3.00;;;12.70;99.90;;;;;;5040458;28;20017;-39
2024/04/05 03:05:48;;;;;;;20.60;2.80;;;12.60;99.90;;;;;;5054745;28;20505;-38
2024/04/05 03:08:14;;;;;;;18.05;3.55;;;12.70;99.90;;;;;;5055006;28;20037;-37
2024/04/05 03:10:39;;;;;;;14.30;3.50;;;12.70;99.90;;;;;;5054762;28;20037;-40
2024/04/05 03:13:05;;;;;;;13.68;2.47;;;12.70;99.90;;;;;;5054749;28;20359;-36
2024/04/05 03:15:30;;;;;;;18.90;2.60;;;12.70;99.90;;;;;;5055055;28;20461;-36
2024/04/05 03:17:56;;;;;;;15.77;2.55;;;12.70;99.90;;;;;;5054666;28;20017;-37
2024/04/05 03:20:22;;;;;;;11.98;3.63;;;12.70;99.90;;;;;;5054847;28;20485;-39
2024/04/05 03:22:47;;;;;;;11.20;2.65;;;12.70;99.90;;;;;;5054420;28;20094;-37
2024/04/05 03:25:13;;;;;;;26.90;3.28;;;12.70;99.90;;;;;;5054581;28;20025;-36
2024/04/05 03:27:38;;;;;;;18.42;3.15;;;12.70;99.90;;;;;;5054494;28;20076;-41
2024/04/05 03:30:04;;;;;;;14.60;3.15;;;12.70;99.90;;;;;;5054728;28;20035;-36
2024/04/05 03:32:30;;;;;;;20.35;2.78;;;12.70;99.90;;;;;;5053334;28;20044;-37
2024/04/05 03:34:56;;;;;;;17.42;2.83;;;12.70;99.90;;;;;;5054458;28;20025;-38
2024/04/05 03:37:22;;;;;;;17.73;3.03;;;12.70;99.90;;;;;;5054557;28;20476;-38
2024/04/05 03:39:52;;;;;;;16.98;3.47;;;12.60;99.90;;;;;;5053697;28;20025;-37
2024/04/05 03:42:20;;;;;;;12.68;2.72;;;12.50;99.90;;;;;;5054437;28;20024;-38
2024/04/05 03:44:48;;;;;;;24.77;2.72;;;12.50;99.90;;;;;;5053628;28;20482;-37
2024/04/05 03:47:14;;;;;;;19.23;3.92;;;12.50;99.90;;;;;;5054265;28;20480;-36
2024/04/05 03:49:40;;;;;;;22.50;4.03;;;12.50;99.90;;;;;;5052302;28;20100;-37
2024/04/05 03:52:06;;;;;;;17.00;3.08;;;12.50;99.90;;;;;;5032844;28;20017;-41
2024/04/05 03:54:33;;;;;;;14.50;3.15;;;12.50;99.90;;;;;;5040118;28;20487;-36
2024/04/05 03:56:59;;;;;;;24.15;3.10;;;12.40;99.90;;;;;;5051451;28;20482;-36
2024/04/05 03:59:26;;;;;;;20.80;3.10;;;12.50;99.90;;;;;;5053897;28;20059;-35
2024/04/05 04:01:52;;;;;;;7.95;1.83;;;12.40;99.90;;;;;;5053359;28;20462;-37
2024/04/05 04:04:18;;;;;;;20.60;2.85;;;12.50;99.90;;;;;;5040781;28;20044;-36
2024/04/05 04:06:44;;;;;;;17.73;3.08;;;12.40;99.90;;;;;;5038887;28;20021;-54
2024/04/05 04:09:14;;;;;;;14.00;3.42;;;12.40;99.90;;;;;;5053877;28;20053;-53
2024/04/05 04:11:40;;;;;;;10.63;3.00;;;12.40;99.90;;;;;;5053555;28;20493;-48
2024/04/05 04:14:06;;;;;;;13.85;3.17;;;12.40;99.90;;;;;;5053809;28;20029;-52
2024/04/05 04:16:32;;;;;;;9.65;2.75;;;12.40;99.90;;;;;;5042395;28;20037;-49
2024/04/05 04:18:57;;;;;;;17.35;4.15;;;12.40;99.90;;;;;;5033946;28;20474;-51
2024/04/05 04:21:24;;;;;;;14.35;2.20;;;12.40;99.90;;;;;;5033517;28;20405;-53
2024/04/05 04:23:51;;;;;;;15.63;2.58;;;12.40;99.90;;;;;;5033443;28;20036;-53
2024/04/05 04:26:16;;;;;;;17.38;3.35;;;12.40;99.90;;;;;;5033313;28;20103;-52
2024/04/05 04:28:42;;;;;;;17.33;2.40;;;12.40;99.90;;;;;;5033400;28;20398;-49
2024/04/05 04:31:22;;;;;;;20.35;2.38;;;12.40;99.90;;;;;;5041883;28;20378;-37
2024/04/05 04:33:51;;;;;;;13.40;3.10;;;12.50;99.90;;;;;;5051889;28;20397;-37
2024/04/05 04:36:20;;;;;;;10.82;2.67;;;12.50;99.90;;;;;;5053384;28;20075;-36
2024/04/05 04:38:47;;;;;;;17.00;2.70;;;12.60;99.90;;;;;;5053051;28;20544;-38
2024/04/05 04:41:13;;;;;;;10.65;2.05;;;12.60;99.90;;;;;;5052793;28;20017;-39
2024/04/05 04:43:42;;;;;;;15.90;2.85;;;12.50;99.90;;;;;;5052748;28;20039;-36
2024/04/05 04:46:12;;;;;;;15.55;3.05;;;12.50;99.90;;;;;;5045257;28;20529;-37
2024/04/05 04:48:40;;;;;;;16.95;3.05;;;12.50;99.90;;;;;;5032975;28;20039;-36
2024/04/05 04:51:06;;;;;;;14.60;2.88;;;12.50;99.90;;;;;;5033297;28;20075;-36
2024/04/05 04:53:32;;;;;;;13.60;2.67;;;12.40;99.90;;;;;;5033064;28;20379;-36
2024/04/05 04:55:58;;;;;;;13.60;2.63;;;12.40;99.90;;;;;;5032853;28;20025;-36
2024/04/05 04:58:28;;;;;;;16.10;3.42;;;12.40;99.90;;;;;;5039516;28;20366;-36
2024/04/05 05:00:54;;;;;;;14.00;2.67;;;12.40;99.90;;;;;;5052246;28;20010;-38
2024/04/05 05:03:20;;;;;;;7.68;2.50;;;12.30;99.90;;;;;;5040223;28;20390;-36
2024/04/05 05:05:46;;;;;;;16.63;2.88;;;12.30;99.90;;;;;;5032734;28;20025;-36
2024/04/05 05:08:11;;;;;;;11.93;2.42;;;12.30;99.90;;;;;;5032708;28;20025;-36
2024/04/05 05:10:38;;;;;;;17.90;3.05;;;12.20;99.90;;;;;;5049592;28;20029;-36
2024/04/05 05:13:11;;;;;;;11.73;2.00;;;12.20;99.90;;;;;;5052485;28;20487;-36
2024/04/05 05:15:44;;;;;;;11.60;2.25;;;12.30;99.90;;;;;;5048669;28;20083;-38
2024/04/05 05:18:10;;;;;;;18.40;2.78;;;12.30;99.90;;;;;;5032633;28;20022;-46
2024/04/05 05:20:44;;;;;;;12.25;2.38;;;12.30;99.90;;;;;;5032717;28;20068;-41
2024/04/05 05:23:10;;;;;;;10.63;2.42;;;12.40;99.90;;;;;;5032639;28;20025;-36
2024/04/05 05:25:37;;;;;;;18.73;2.95;;;12.40;99.90;;;;;;5032220;28;20087;-37
2024/04/05 05:28:04;;;;;;;20.20;2.50;;;12.50;99.90;;;;;;5035496;28;20032;-38
2024/04/05 05:30:29;;;;;;;19.73;2.33;;;12.50;99.90;;;;;;5051642;28;20028;-36
2024/04/05 05:32:56;;;;;;;6.85;1.92;;;12.50;99.90;;;;;;5052047;28;20029;-38
2024/04/05 05:35:23;;;;;;;13.60;2.95;;;12.50;99.90;;;;;;5052345;28;20074;-37
2024/04/05 05:37:49;;;;;;;15.73;2.10;;;12.50;99.90;;;;;;5052093;28;20071;-38
2024/04/05 05:40:15;;;;;;;10.68;2.50;;;12.50;99.90;;;;;;5051670;28;20017;-38
2024/04/05 05:42:40;;;;;;;7.97;2.83;;;12.60;99.90;;;;;;5052360;28;20384;-36
2024/04/05 05:45:06;;;;;;;21.08;2.65;;;12.60;99.90;;;;;;5052075;28;20104;-36
2024/04/05 05:47:32;;;;;;;15.07;2.92;;;12.70;99.90;;;;;;5050489;28;20505;-37
2024/04/05 05:49:57;;;;;;;8.85;2.22;;;12.70;99.90;;;;;;5052035;28;20036;-37
2024/04/05 05:52:23;;;;;;;9.48;1.63;;;12.80;99.90;;;;;;5051656;28;20025;-37
2024/04/05 05:54:48;;;;;;;12.13;2.45;;;12.80;99.90;;;;;;5052248;28;20059;-53
2024/04/05 05:57:15;;;;;;;9.10;2.55;;;12.80;99.90;;;;;;5055058;28;20025;-58
2024/04/05 05:59:40;;;;;;;17.15;3.03;;;12.80;99.90;;;;;;5039066;28;20021;-52
2024/04/05 06:02:06;;;;;;;11.98;3.08;;;12.80;99.90;;;;;;5052974;28;20031;-52
2024/04/05 06:04:32;;;;;;;16.27;3.42;;;12.90;99.90;;;;;;5056024;28;20109;-51
2024/04/05 06:06:58;;;;;;;13.88;2.95;;;13.00;99.90;;;;;;5055859;28;20406;-54
2024/04/05 06:09:23;;;;;;;20.52;2.88;;;13.10;99.90;;;;;;5056149;28;20024;-53
2024/04/05 06:11:54;;;;;;;15.80;3.03;;;13.20;99.90;;;;;;5039084;28;20133;-52
2024/04/05 06:14:19;;;;;;;9.80;2.75;;;13.20;99.90;;;;;;5035749;28;20029;-55
2024/04/05 06:16:45;;;;;;;16.60;2.75;;;13.30;99.90;;;;;;5042037;28;20021;-53
2024/04/05 06:19:11;;;;;;;9.60;2.20;;;13.30;99.90;;;;;;5035666;28;20014;-51
2024/04/05 06:21:37;;;;;;;14.82;2.67;;;13.30;99.90;;;;;;5050833;28;20402;-51
2024/04/05 06:24:03;;;;;;;12.23;3.17;;;13.40;99.90;;;;;;5055736;28;20063;-49
2024/04/05 06:26:29;;;;;;;9.45;2.60;;;13.50;99.90;;;;;;5055275;28;20529;-52
2024/04/05 06:28:55;;;;;;;16.58;2.72;;;13.60;99.90;;;;;;5042340;28;20025;-50
2024/04/05 06:31:20;;;;;;;11.30;2.95;;;13.60;99.90;;;;;;5044007;28;20033;-57
2024/04/05 06:33:46;;;;;;;17.27;2.60;;;13.60;99.90;;;;;;5041578;28;20108;-53
2024/04/05 06:36:12;;;;;;;10.57;2.42;;;13.70;99.90;;;;;;5034502;28;20090;-54
2024/04/05 06:38:37;;;;;;;6.75;3.33;;;13.70;99.90;;;;;;5048365;28;20047;-53
2024/04/05 06:41:04;;;;;;;16.27;2.45;;;13.80;99.90;;;;;;5055594;28;20028;-54
2024/04/05 06:43:30;;;;;;;6.47;1.98;;;13.80;99.90;;;;;;5055229;28;20029;-52
2024/04/05 06:45:58;;;;;;;15.02;2.83;;;13.80;99.90;;;;;;5053404;28;20021;-38
2024/04/05 06:48:24;;;;;;;10.30;2.17;;;14.00;99.90;;;;;;5055143;28;20111;-36
2024/04/05 06:50:50;;;;;;;10.68;2.20;;;14.10;99.90;;;;;;5054742;28;20118;-37
2024/04/05 06:53:28;;;;;;;12.18;3.72;;;14.20;99.90;;;;;;5055032;28;20389;-52
2024/04/05 06:55:53;;;;;;;15.02;2.13;;;14.20;99.90;;;;;;5054515;28;20547;-56
2024/04/05 06:58:19;;;;;;;11.23;2.50;;;14.30;99.90;;;;;;5054904;28;20085;-51
2024/04/05 07:00:46;;;;;;;4.85;2.10;;;14.40;99.90;;;;;;5054355;28;20154;-52
2024/04/05 07:03:12;;;;;;;10.10;2.25;;;14.40;99.90;;;;;;5054904;28;20025;-53
2024/04/05 07:05:39;;;;;;;6.35;3.03;;;14.40;99.90;;;;;;5039682;28;20021;-46
2024/04/05 07:08:05;;;;;;;18.42;2.33;;;14.50;99.90;;;;;;5034756;28;20034;-38
2024/04/05 07:10:32;;;;;;;14.27;2.42;;;14.60;99.90;;;;;;5035151;28;20453;-37
2024/04/05 07:12:59;;;;;;;7.70;2.60;;;14.70;99.90;;;;;;5046227;28;20025;-36
2024/04/05 07:15:25;;;;;;;8.63;2.55;;;14.70;99.90;;;;;;5054523;28;20104;-36
2024/04/05 07:17:52;;;;;;;10.00;2.72;;;14.90;99.90;;;;;;5054670;28;20437;-36
2024/04/05 07:20:18;;;;;;;17.75;3.60;;;14.90;99.90;;;;;;5048051;28;20030;-36
2024/04/05 07:22:44;;;;;;;11.27;1.77;;;14.90;99.90;;;;;;5034926;28;20497;-38
2024/04/05 07:25:10;;;;;;;5.45;2.00;;;15.00;99.90;;;;;;5040742;28;20485;-37
2024/04/05 07:27:36;;;;;;;11.52;2.65;;;15.00;99.90;;;;;;5043639;28;20056;-36
2024/04/05 07:30:03;;;;;;;9.43;2.83;;;15.00;99.90;;;;;;5034810;28;20425;-36
2024/04/05 07:32:28;;;;;;;10.65;2.03;;;14.90;99.90;;;;;;5046311;28;20381;-37
2024/04/05 07:34:54;;;;;;;13.55;2.15;;;14.90;99.90;;;;;;5034356;28;20018;-37
2024/04/05 07:37:20;;;;;;;12.25;2.10;;;14.80;99.90;;;;;;5042465;28;20039;-51
2024/04/05 07:39:55;;;;;;;6.10;2.15;;;14.70;99.90;;;;;;5048930;28;20047;-52
2024/04/05 07:42:21;;;;;;;10.50;2.97;;;14.60;99.90;;;;;;5052847;28;20055;-51
2024/04/05 07:44:53;;;;;;;9.13;2.42;;;14.60;99.90;;;;;;5054472;28;20480;-51
2024/04/05 07:47:18;;;;;;;5.88;2.05;;;14.50;99.90;;;;;;5036887;28;20082;-52
2024/04/05 07:49:44;;;;;;;6.93;1.67;;;14.40;99.90;;;;;;5050738;28;20384;-52
2024/04/05 07:52:09;;;;;;;11.27;1.88;;;14.30;99.90;;;;;;5053355;28;20035;-51
2024/04/05 07:54:35;;;;;;;9.18;1.20;;;14.10;99.90;;;;;;5054003;28;20478;-49
2024/04/05 07:57:01;;;;;;;7.57;2.13;;;13.90;99.90;;;;;;5051449;28;20500;-35
2024/04/05 07:59:26;;;;;;;11.13;1.88;;;13.80;99.90;;;;;;5038982;28;20491;-39
2024/04/05 08:01:52;;;;;;;13.18;2.47;;;13.80;99.90;;;;;;5048834;28;20104;-35
2024/04/05 08:04:18;;;;;;;5.43;1.52;;;13.70;99.90;;;;;;5053828;28;20029;-35
2024/04/05 08:06:44;;;;;;;3.08;1.83;;;13.70;99.90;;;;;;5037544;28;20033;-35
2024/04/05 08:09:11;;;;;;;12.40;2.55;;;13.80;99.90;;;;;;5033812;28;20029;-35
2024/04/05 08:11:37;;;;;;;8.35;1.98;;;13.80;99.90;;;;;;5047624;28;20497;-38
2024/04/05 08:14:02;;;;;;;15.27;2.08;;;13.80;99.90;;;;;;5052788;28;20031;-37
2024/04/05 08:16:28;;;;;;;4.93;1.83;;;13.90;99.90;;;;;;5043959;28;20022;-36
2024/04/05 08:18:58;;;;;;;8.65;1.38;;;13.90;99.90;;;;;;5033250;28;20142;-35
2024/04/05 08:21:24;;;;;;;9.68;2.25;;;13.90;99.90;;;;;;5045326;28;20062;-36
2024/04/05 08:23:49;;;;;;;10.60;2.50;;;14.00;99.90;;;;;;5053640;28;20037;-41
2024/04/05 08:26:15;;;;;;;6.07;1.83;;;13.90;99.90;;;;;;5040851;28;20045;-35
2024/04/05 08:28:41;;;;;;;11.40;2.05;;;13.90;99.90;;;;;;5052964;28;20385;-35
2024/04/05 08:31:06;;;;;;;16.38;3.45;;;14.00;99.90;;;;;;5048650;28;20417;-40
2024/04/05 08:33:32;;;;;;;11.00;2.20;;;13.90;99.90;;;;;;5051495;28;20026;-35
2024/04/05 08:35:59;;;;;;;9.20;2.28;;;13.90;99.90;;;;;;5042583;28;20025;-35
2024/04/05 08:38:24;;;;;;;9.73;1.65;;;13.90;99.90;;;;;;5038536;28;20168;-35
2024/04/05 08:40:50;;;;;;;2.58;1.33;;;13.80;99.90;;;;;;5052942;28;20083;-36
2024/04/05 08:43:17;;;;;;;8.27;1.77;;;13.90;99.90;;;;;;5053113;28;20025;-39
2024/04/05 08:45:44;;;;;;;7.93;1.58;;;13.90;99.90;;;;;;5051208;28;20106;-42
2024/04/05 08:48:11;;;;;;;4.50;1.92;;;13.90;99.90;;;;;;5039699;28;20375;-51
2024/04/05 08:50:38;;;;;;;8.27;1.60;;;13.90;99.90;;;;;;5040195;28;20057;-53
2024/04/05 08:53:22;;;;;;;9.88;2.47;;;14.00;99.90;;;;;;5050040;28;20025;-52
2024/04/05 08:55:48;;;;;;;10.55;3.60;;;14.10;99.90;;;;;;5052114;28;20486;-51
2024/04/05 08:58:15;;;;;;;6.40;1.80;;;14.10;99.90;;;;;;5047601;28;20032;-52
2024/04/05 09:00:41;;;;;;;8.13;2.00;;;14.20;99.90;;;;;;5040463;28;20508;-52
2024/04/05 09:03:07;;;;;;;13.68;1.95;;;14.20;99.90;;;;;;5052933;28;20104;-57
2024/04/05 09:05:33;;;;;;;11.60;2.78;;;14.20;99.90;;;;;;5052051;28;20509;-53
2024/04/05 09:08:06;;;;;;;6.32;1.83;;;14.20;99.90;;;;;;5052679;28;20029;-37
2024/04/05 09:10:32;;;;;;;8.10;1.50;;;14.20;99.90;;;;;;5050993;28;20029;-35
2024/04/05 09:13:01;;;;;;;7.22;1.58;;;14.20;99.90;;;;;;5052521;28;20063;-35
2024/04/05 09:15:28;;;;;;;6.85;1.30;;;14.10;99.90;;;;;;5050789;28;20033;-36
2024/04/05 09:17:54;;;;;;;1.70;0.88;;;14.10;99.90;;;;;;5050693;28;20025;-35
2024/04/05 09:20:24;;;;;;;5.63;1.70;;;14.00;99.90;;;;;;5037125;28;20477;-36
2024/04/05 09:23:02;;;;;;;6.88;1.67;;;14.10;99.90;;;;;;5036298;28;20013;-36
2024/04/05 09:25:30;;;;;;;3.53;1.35;;;14.10;99.90;;;;;;5050969;28;20162;-36
2024/04/05 09:28:15;;;;;;;6.78;1.48;;;14.00;99.90;;;;;;5052392;28;20033;-37
2024/04/05 09:30:40;;;;;;;3.33;1.40;;;14.00;99.90;;;;;;5037085;28;20546;-35
2024/04/05 09:33:06;;;;;;;2.55;1.42;;;14.00;99.90;;;;;;5052389;28;20107;-38
2024/04/05 09:35:38;;;;;;;6.90;2.00;;;14.00;99.90;;;;;;5050949;28;20036;-35
2024/04/05 09:38:05;;;;;;;2.85;1.25;;;14.00;99.90;;;;;;5052396;28;20028;-38
2024/04/05 09:40:39;;;;;;;4.47;1.08;;;14.00;99.90;;;;;;5052396;28;20359;-41
2024/04/05 09:43:07;;;;;;;1.67;1.20;;;14.00;99.90;;;;;;5052196;28;20029;-40
2024/04/05 09:45:34;;;;;;;;;;;14.00;99.90;;;;;;5049204;28;20519;-36
2024/04/05 09:48:00;;;;;;;4.63;1.27;;;14.10;99.90;;;;;;5050673;28;20353;-36
2024/04/05 09:50:29;;;;;;;3.38;1.08;;;14.20;99.90;;;;;;5052028;28;20366;-37
2024/04/05 09:52:56;;;;;;;3.88;1.27;;;14.30;99.90;;;;;;5051939;28;20028;-37
2024/04/05 09:55:24;;;;;;;1.65;0.82;;;14.30;99.90;;;;;;5051458;28;20094;-42
2024/04/05 09:57:50;;;;;;;2.45;0.88;;;14.40;99.90;;;;;;5034830;28;20026;-36
2024/04/05 10:00:23;;;;;;;5.45;1.77;;;14.50;99.90;;;;;;5041181;28;20036;-36
2024/04/05 10:02:52;;;;;;;4.05;1.17;;;14.60;99.90;;;;;;5042445;28;20458;-36
2024/04/05 10:05:34;;;;;;;5.88;1.38;;;14.70;99.90;;;;;;5033686;28;20473;-36
2024/04/05 10:08:10;;;;;;;3.00;1.13;;;14.80;99.90;;;;;;5051606;28;20495;-41
2024/04/05 10:10:36;;;;;;;4.40;1.20;;;14.80;99.90;;;;;;5036073;28;20035;-36
2024/04/05 10:13:15;;;;;;;3.25;1.58;;;15.00;99.90;;;;;;5031944;28;20029;-36
2024/04/05 10:15:58;;;;;;;3.75;1.02;;;15.00;99.90;;;;;;5041147;28;20397;-36
2024/04/05 10:18:29;;;;;;;5.88;1.35;;;15.00;99.90;;;;;;5051865;28;20488;-35
2024/04/05 10:21:13;;;;;;;7.72;1.05;;;14.90;99.90;;;;;;5045632;28;20032;-36
2024/04/05 10:23:40;;;;;;;8.25;1.70;;;14.90;99.90;;;;;;5051689;28;20512;-36
2024/04/05 10:26:15;;;;;;;3.95;1.40;;;14.90;99.90;;;;;;5051551;28;20037;-35
2024/04/05 10:28:42;;;;;;;3.53;1.08;;;15.00;99.90;;;;;;5050691;28;20033;-43
2024/04/05 10:31:07;;;;;;;3.05;1.02;;;15.00;99.90;;;;;;5039066;28;20112;-36
2024/04/05 10:33:33;;;;;;;4.97;1.83;;;15.10;99.90;;;;;;5050647;28;20190;-36
2024/04/05 10:36:00;;;;;;;4.28;0.98;;;15.30;99.90;;;;;;5051792;28;20033;-35
2024/04/05 10:38:29;;;;;;;3.28;1.17;;;15.50;99.90;;;;;;5051381;28;20032;-39
2024/04/05 10:40:58;;;;;;;6.13;1.08;;;15.50;99.90;;;;;;5050130;28;20029;-36
2024/04/05 10:43:25;;;;;;;2.25;1.10;;;15.50;99.90;;;;;;5044169;28;20514;-37
2024/04/05 10:45:55;;;;;;;7.68;1.35;;;15.70;99.90;;;;;;5054539;28;20502;-44
2024/04/05 10:48:24;;;;;;;2.72;1.15;;;15.80;99.90;;;;;;5055173;28;20028;-37
2024/04/05 10:50:52;;;;;;;6.57;1.38;;;16.10;99.90;;;;;;5053900;28;20570;-37
2024/04/05 10:53:19;;;;;;;5.88;1.10;;;16.10;99.90;;;;;;5035013;28;20068;-43
2024/04/05 10:55:45;;;;;;;2.08;0.90;;;16.20;99.90;;;;;;5035187;28;20033;-39
2024/04/05 10:58:11;;;;;;;5.30;1.30;;;16.20;99.90;;;;;;5042759;28;20025;-35
2024/04/05 11:00:38;;;;;;;3.70;1.48;;;16.10;99.90;;;;;;5054367;28;20079;-37
2024/04/05 11:03:07;;;;;;;4.70;1.30;;;16.10;99.90;;;;;;5055249;28;20489;-36
2024/04/05 11:05:34;;;;;;;2.72;1.25;;;16.10;99.90;;;;;;5039143;28;20486;-37
2024/04/05 11:08:03;;;;;;;2.47;1.43;;;16.00;99.90;;;;;;5055042;28;20393;-35
2024/04/05 11:10:34;;;;;;;3.15;1.00;;;15.90;99.90;;;;;;5055192;28;20086;-35
2024/04/05 11:13:01;;;;;;;2.42;1.38;;;15.80;99.90;;;;;;5053423;28;20551;-35
2024/04/05 11:15:27;;;;;;;4.45;1.65;;;15.80;99.90;;;;;;5052411;28;20098;-36
2024/04/05 11:18:05;;;;;;;5.30;1.23;;;15.70;99.90;;;;;;5054765;28;20103;-35
2024/04/05 11:20:31;;;;;;;3.15;1.20;;;15.70;99.90;;;;;;5055035;28;20494;-37
2024/04/05 11:23:04;;;;;;;2.60;0.98;;;15.60;99.90;;;;;;5054392;28;20497;-35
2024/04/05 11:25:31;;;;;;;5.35;1.65;;;15.40;99.90;;;;;;5054721;28;20037;-40
2024/04/05 11:27:57;;;;;;;2.95;1.20;;;15.30;99.90;;;;;;5054421;28;20080;-36
2024/04/05 11:30:24;;;;;;;2.80;1.13;;;15.30;99.90;;;;;;5051276;28;20442;-45
2024/04/05 11:32:50;;;;;;;2.23;1.40;;;15.20;99.90;;;;;;5035254;28;20040;-36
2024/04/05 11:35:15;;;;;;;4.00;1.35;;;15.30;99.90;;;;;;5034811;28;20030;-49
2024/04/05 11:37:46;;;;;;;9.45;1.95;;;15.30;99.90;;;;;;5043020;28;20096;-49
2024/04/05 11:40:13;;;;;;;5.95;1.70;;;15.20;99.90;;;;;;5054645;28;20490;-48
2024/04/05 11:42:39;;;;;;;3.33;1.52;;;15.30;99.90;;;;;;5052875;28;20017;-51
2024/04/05 11:45:06;;;;;;;2.92;1.58;;;15.30;99.90;;;;;;5054198;28;20025;-52
2024/04/05 11:47:36;;;;;;;2.67;1.33;;;15.30;99.90;;;;;;5054290;28;20154;-47
2024/04/05 11:50:04;;;;;;;2.20;1.10;;;15.20;99.90;;;;;;5053965;28;20017;-54
2024/04/05 11:52:31;;;;;;;1.95;1.00;;;15.20;99.90;;;;;;5055416;28;20025;-50
2024/04/05 11:54:58;;;;;;;3.60;0.73;;;15.20;99.90;;;;;;5053217;28;20032;-49
2024/04/05 11:57:23;;;;;;;1.75;0.90;;;15.20;99.90;;;;;;5039483;28;20112;-51
2024/04/05 11:59:49;;;;;;;3.90;1.10;;;15.20;99.90;;;;;;5034358;28;20461;-45
2024/04/05 12:02:15;;;;;;;2.20;1.08;;;15.20;99.90;;;;;;5046675;28;20470;-52
2024/04/05 12:04:40;;;;;;;2.72;1.20;;;15.20;99.90;;;;;;5053864;28;20033;-50
2024/04/05 12:07:12;;;;;;;4.90;1.27;;;15.10;99.90;;;;;;5054150;28;20036;-49
2024/04/05 12:09:37;;;;;;;4.18;1.58;;;15.20;99.90;;;;;;5053745;28;20108;-51
2024/04/05 12:12:06;;;;;;;4.63;1.13;;;15.20;99.90;;;;;;5051898;28;20372;-53
2024/04/05 12:14:33;;;;;;;5.93;1.45;;;15.40;99.90;;;;;;5052860;28;20040;-50
2024/04/05 12:17:02;;;;;;;2.63;1.42;;;15.50;99.90;;;;;;5053911;28;20021;-49
2024/04/05 12:19:28;;;;;;;7.70;1.52;;;15.50;99.90;;;;;;5052083;28;20052;-39
2024/04/05 12:21:54;;;;;;;4.95;1.05;;;15.60;99.90;;;;;;5045319;28;20060;-41
2024/04/05 12:24:20;;;;;;;2.75;1.00;;;15.70;99.90;;;;;;5051782;28;20518;-38
2024/04/05 12:26:46;;;;;;;3.20;1.15;;;15.80;99.90;;;;;;5052887;28;20405;-36
2024/04/05 12:29:12;;;;;;;6.07;1.30;;;15.90;99.90;;;;;;5053802;28;20032;-39
2024/04/05 12:31:38;;;;;;;3.83;1.80;;;16.00;99.90;;;;;;5043535;28;20123;-37
2024/04/05 12:34:04;;;;;;;4.38;1.85;;;16.30;99.90;;;;;;5033437;28;20359;-38
2024/04/05 12:36:31;;;;;;;4.63;1.02;;;16.50;99.90;;;;;;5033351;28;20035;-43
2024/04/05 12:38:57;;;;;;;3.47;2.08;;;16.70;99.90;;;;;;5052590;28;20485;-42